Adelaide, California
Current Conditions -  °F | °C
As of 7:53 PM on Sunday 23 Nov 2014 (Local Time) from KPRB Reporting Station
Clear Clear  
Wind Chill: 12°   Ceiling: Unl
Heat Index: 12°   Visibility: 10mi
Dew Point:   Wind: 0mph
Humidity: 52%   Direction: NA
Pressure: 30.27"   Gusts: NA
Location:  35.6618°N, 120.707°W
Report Text: KPRB 240353Z AUTO 00000KT 10SM CLR 12/02 A3027 RMK AO2 SLP251 T01170022 TSNO
Loading
Personal Weather Stations






























Interactive Weather Map New forecast layout! Learn more

10-Day Weather Forecast

Advertisements
Track Severe Weather on mobile